Time,TemperatureF,DewpointF,PressureIn,WindDirection,WindDirectionDegrees,WindSpeedMPH,WindSpeedGustMPH,Humidity,HourlyPrecipIn,Conditions,Clouds,dailyrainin,SoftwareType,DateUTC
2013-04-18 00:01:00,60.4,45.6,29.98,SSE,162,4.0,4.0,58,0.00,,---,0.00,VWS V14.00,2013-04-18 04:01:00,
2013-04-18 00:02:00,60.4,45.6,29.97,SSW,198,3.0,6.0,58,0.00,,---,0.00,VWS V14.00,2013-04-18 04:02:00,
2013-04-18 00:07:00,60.4,46.0,29.97,SSW,202,0.0,6.0,59,0.00,,---,0.00,VWS V14.00,2013-04-18 04:07:00,
2013-04-18 00:12:00,60.4,46.5,29.97,South,186,3.0,6.0,60,0.00,,---,0.00,VWS V14.00,2013-04-18 04:12:00,
2013-04-18 00:17:00,60.3,46.4,29.97,WSW,239,0.0,5.0,60,0.00,,---,0.00,VWS V14.00,2013-04-18 04:17:00,
2013-04-18 00:22:00,60.3,46.8,29.97,SSW,200,4.0,6.0,61,0.00,,---,0.00,VWS V14.00,2013-04-18 04:22:00,
2013-04-18 00:27:00,60.3,47.7,29.97,SSE,157,2.0,7.0,63,0.00,,---,0.00,VWS V14.00,2013-04-18 04:27:00,
2013-04-18 00:32:00,60.3,48.1,29.96,South,190,5.0,6.0,64,0.00,,---,0.00,VWS V14.00,2013-04-18 04:32:00,
2013-04-18 00:37:00,60.4,48.6,29.97,South,179,0.0,6.0,65,0.00,,---,0.00,VWS V14.00,2013-04-18 04:37:00,
2013-04-18 00:42:00,60.5,49.1,29.96,South,169,4.0,8.0,66,0.00,,---,0.00,VWS V14.00,2013-04-18 04:42:00,
2013-04-18 00:47:00,60.8,50.2,29.96,South,184,0.0,10.0,68,0.00,,---,0.00,VWS V14.00,2013-04-18 04:47:00,
2013-04-18 00:52:00,61.0,50.8,29.96,South,176,6.0,10.0,69,0.00,,---,0.00,VWS V14.00,2013-04-18 04:52:00,
2013-04-18 00:57:00,61.2,51.0,29.96,SSE,166,5.0,11.0,69,0.00,,---,0.00,VWS V14.00,2013-04-18 04:57:00,
2013-04-18 01:02:00,61.4,51.5,29.96,South,191,8.0,10.0,70,0.00,,---,0.00,VWS V14.00,2013-04-18 05:02:00,
2013-04-18 01:07:00,61.5,51.6,29.96,South,188,4.0,10.0,70,0.00,,---,0.00,VWS V14.00,2013-04-18 05:07:00,
2013-04-18 01:12:00,61.5,52.0,29.95,SSE,168,1.0,12.0,71,0.00,,---,0.00,VWS V14.00,2013-04-18 05:12:00,
2013-04-18 01:17:00,61.4,51.9,29.95,South,184,4.0,10.0,71,0.00,,---,0.00,VWS V14.00,2013-04-18 05:17:00,
2013-04-18 01:22:00,61.4,52.3,29.95,South,178,4.0,10.0,72,0.00,,---,0.00,VWS V14.00,2013-04-18 05:22:00,
2013-04-18 01:27:00,61.4,52.7,29.94,SSE,149,7.0,10.0,73,0.00,,---,0.00,VWS V14.00,2013-04-18 05:27:00,
2013-04-18 01:32:00,61.4,52.7,29.94,South,173,1.0,5.0,73,0.00,,---,0.00,VWS V14.00,2013-04-18 05:32:00,
2013-04-18 01:37:00,61.3,53.0,29.94,SSE,147,4.0,8.0,74,0.00,,---,0.00,VWS V14.00,2013-04-18 05:37:00,
2013-04-18 01:42:00,61.4,53.0,29.94,SSE,161,2.0,14.0,74,0.00,,---,0.00,VWS V14.00,2013-04-18 05:42:00,
2013-04-18 01:47:00,61.4,53.0,29.93,SSE,156,6.0,10.0,74,0.00,,---,0.00,VWS V14.00,2013-04-18 05:47:00,
2013-04-18 01:52:00,61.4,53.0,29.93,South,173,2.0,10.0,74,0.00,,---,0.00,VWS V14.00,2013-04-18 05:52:00,
2013-04-18 01:57:00,61.3,53.3,29.93,SSW,196,2.0,12.0,75,0.00,,---,0.00,VWS V14.00,2013-04-18 05:57:00,
2013-04-18 02:02:00,61.3,53.3,29.93,SSE,159,1.0,9.0,75,0.00,,---,0.00,VWS V14.00,2013-04-18 06:02:00,
2013-04-18 02:07:00,61.2,53.2,29.93,ESE,118,0.0,9.0,75,0.00,,---,0.00,VWS V14.00,2013-04-18 06:07:00,
2013-04-18 02:12:00,61.2,53.6,29.92,South,180,5.0,9.0,76,0.00,,---,0.00,VWS V14.00,2013-04-18 06:12:00,
2013-04-18 02:17:00,61.1,53.5,29.92,South,188,6.0,7.0,76,0.00,,---,0.00,VWS V14.00,2013-04-18 06:17:00,
2013-04-18 02:23:00,61.1,53.5,29.91,South,188,7.0,11.0,76,0.00,,---,0.00,VWS V14.00,2013-04-18 06:23:00,
2013-04-18 02:28:00,61.0,53.4,29.90,South,178,5.0,11.0,76,0.00,,---,0.00,VWS V14.00,2013-04-18 06:28:00,
2013-04-18 02:33:00,61.0,53.8,29.90,SE,136,0.0,11.0,77,0.00,,---,0.00,VWS V14.00,2013-04-18 06:33:00,
2013-04-18 02:38:00,60.9,53.7,29.90,South,176,5.0,15.0,77,0.00,,---,0.00,VWS V14.00,2013-04-18 06:38:00,
2013-04-18 02:43:00,60.9,54.0,29.89,SSE,167,7.0,15.0,78,0.00,,---,0.00,VWS V14.00,2013-04-18 06:43:00,
2013-04-18 02:48:00,61.0,54.1,29.89,South,170,15.0,15.0,78,0.00,,---,0.00,VWS V14.00,2013-04-18 06:48:00,
2013-04-18 02:53:00,61.0,54.1,29.88,ESE,113,4.0,15.0,78,0.00,,---,0.00,VWS V14.00,2013-04-18 06:53:00,
2013-04-18 02:58:00,60.9,54.0,29.88,SSW,192,10.0,17.0,78,0.00,,---,0.00,VWS V14.00,2013-04-18 06:58:00,
2013-04-18 03:03:00,60.9,54.3,29.88,SSE,164,4.0,15.0,79,0.00,,---,0.00,VWS V14.00,2013-04-18 07:03:00,
2013-04-18 03:08:00,60.8,54.3,29.88,SSE,148,8.0,15.0,79,0.00,,---,0.00,VWS V14.00,2013-04-18 07:08:00,
2013-04-18 03:13:00,60.8,54.3,29.88,South,186,9.0,15.0,79,0.00,,---,0.00,VWS V14.00,2013-04-18 07:13:00,
2013-04-18 03:18:00,60.8,54.3,29.88,SSW,200,6.0,13.0,79,0.00,,---,0.00,VWS V14.00,2013-04-18 07:18:00,
2013-04-18 03:23:00,60.7,54.2,29.87,South,188,6.0,13.0,79,0.00,,---,0.00,VWS V14.00,2013-04-18 07:23:00,
2013-04-18 03:28:00,60.7,54.5,29.87,ESE,118,7.0,13.0,80,0.00,,---,0.00,VWS V14.00,2013-04-18 07:28:00,
2013-04-18 03:33:00,60.6,54.4,29.87,SSE,166,9.0,11.0,80,0.00,,---,0.00,VWS V14.00,2013-04-18 07:33:00,
2013-04-18 03:38:00,60.5,54.3,29.87,South,186,13.0,13.0,80,0.00,,---,0.00,VWS V14.00,2013-04-18 07:38:00,
2013-04-18 03:43:00,60.5,54.3,29.87,SE,131,5.0,13.0,80,0.00,,---,0.00,VWS V14.00,2013-04-18 07:43:00,
2013-04-18 03:48:00,60.4,54.2,29.86,SSE,152,7.0,9.0,80,0.00,,---,0.00,VWS V14.00,2013-04-18 07:48:00,
2013-04-18 03:53:00,60.4,54.2,29.86,South,188,8.0,9.0,80,0.00,,---,0.00,VWS V14.00,2013-04-18 07:53:00,
2013-04-18 03:58:00,60.4,54.2,29.86,South,171,7.0,12.0,80,0.00,,---,0.00,VWS V14.00,2013-04-18 07:58:00,
2013-04-18 04:03:00,60.3,54.5,29.86,South,169,10.0,12.0,81,0.00,,---,0.00,VWS V14.00,2013-04-18 08:03:00,
2013-04-18 04:08:00,60.3,54.5,29.86,South,183,9.0,14.0,81,0.00,,---,0.00,VWS V14.00,2013-04-18 08:08:00,
2013-04-18 04:13:00,60.3,54.5,29.86,South,177,8.0,14.0,81,0.00,,---,0.00,VWS V14.00,2013-04-18 08:13:00,
2013-04-18 04:18:00,60.4,54.5,29.86,SSW,205,5.0,10.0,81,0.00,,---,0.00,VWS V14.00,2013-04-18 08:18:00,
2013-04-18 04:23:00,60.4,54.5,29.86,South,186,7.0,11.0,81,0.00,,---,0.00,VWS V14.00,2013-04-18 08:23:00,
2013-04-18 04:28:00,60.4,54.5,29.86,SE,136,1.0,12.0,81,0.00,,---,0.00,VWS V14.00,2013-04-18 08:28:00,
2013-04-18 04:33:00,60.4,54.5,29.86,SSE,147,5.0,8.0,81,0.00,,---,0.00,VWS V14.00,2013-04-18 08:33:00,
2013-04-18 04:38:00,60.4,54.5,29.86,SSW,192,6.0,12.0,81,0.00,,---,0.00,VWS V14.00,2013-04-18 08:38:00,
2013-04-18 04:43:00,60.4,54.5,29.86,ESE,113,8.0,12.0,81,0.00,,---,0.00,VWS V14.00,2013-04-18 08:43:00,
2013-04-18 04:48:00,60.4,54.5,29.86,South,180,1.0,9.0,81,0.00,,---,0.00,VWS V14.00,2013-04-18 08:48:00,
2013-04-18 04:53:00,60.3,54.5,29.86,SSW,209,4.0,9.0,81,0.00,,---,0.00,VWS V14.00,2013-04-18 08:53:00,
2013-04-18 04:58:00,60.3,54.8,29.86,ESE,116,7.0,10.0,82,0.00,,---,0.00,VWS V14.00,2013-04-18 08:58:00,
2013-04-18 05:03:00,60.3,54.8,29.86,South,186,5.0,7.0,82,0.00,,---,0.00,VWS V14.00,2013-04-18 09:03:00,
2013-04-18 05:08:00,60.2,54.7,29.85,South,185,5.0,9.0,82,0.00,,---,0.00,VWS V14.00,2013-04-18 09:08:00,
2013-04-18 05:13:00,60.1,54.6,29.85,SSW,192,5.0,10.0,82,0.00,,---,0.00,VWS V14.00,2013-04-18 09:13:00,
2013-04-18 05:18:00,59.9,54.4,29.85,SSE,167,6.0,7.0,82,0.00,,---,0.00,VWS V14.00,2013-04-18 09:18:00,
2013-04-18 05:23:00,60.0,54.8,29.85,South,173,4.0,11.0,83,0.00,,---,0.00,VWS V14.00,2013-04-18 09:23:00,
2013-04-18 05:28:00,60.1,54.9,29.85,South,180,6.0,11.0,83,0.00,,---,0.00,VWS V14.00,2013-04-18 09:28:00,
2013-04-18 05:33:00,60.1,54.9,29.85,South,184,0.0,9.0,83,0.00,,---,0.00,VWS V14.00,2013-04-18 09:33:00,
2013-04-18 05:38:00,60.0,54.8,29.85,South,187,4.0,9.0,83,0.00,,---,0.00,VWS V14.00,2013-04-18 09:38:00,
2013-04-18 05:43:00,60.0,54.8,29.85,SE,128,8.0,10.0,83,0.00,,---,0.00,VWS V14.00,2013-04-18 09:43:00,
2013-04-18 05:48:00,60.0,54.8,29.85,South,169,0.0,8.0,83,0.00,,---,0.00,VWS V14.00,2013-04-18 09:48:00,
2013-04-18 05:53:00,60.0,54.8,29.85,South,172,0.0,8.0,83,0.00,,---,0.00,VWS V14.00,2013-04-18 09:53:00,
2013-04-18 05:58:00,59.9,54.7,29.85,SSW,207,6.0,8.0,83,0.00,,---,0.00,VWS V14.00,2013-04-18 09:58:00,
2013-04-18 06:03:00,59.9,54.7,29.84,South,191,8.0,8.0,83,0.00,,---,0.00,VWS V14.00,2013-04-18 10:03:00,
2013-04-18 06:08:00,59.9,55.1,29.84,SSE,160,8.0,10.0,84,0.00,,---,0.00,VWS V14.00,2013-04-18 10:08:00,
2013-04-18 06:13:00,60.0,55.2,29.84,South,184,6.0,11.0,84,0.00,,---,0.00,VWS V14.00,2013-04-18 10:13:00,
2013-04-18 06:18:00,60.4,55.2,29.84,South,182,5.0,13.0,83,0.00,,---,0.00,VWS V14.00,2013-04-18 10:18:00,
2013-04-18 06:23:00,60.5,55.3,29.84,South,190,6.0,13.0,83,0.00,,---,0.00,VWS V14.00,2013-04-18 10:23:00,
2013-04-18 06:28:00,60.5,55.3,29.84,South,178,5.0,13.0,83,0.00,,---,0.00,VWS V14.00,2013-04-18 10:28:00,
2013-04-18 06:33:00,60.5,55.3,29.84,SSW,200,5.0,8.0,83,0.00,,---,0.00,VWS V14.00,2013-04-18 10:33:00,
2013-04-18 06:38:00,60.5,55.3,29.84,SSE,164,7.0,11.0,83,0.00,,---,0.00,VWS V14.00,2013-04-18 10:38:00,
2013-04-18 06:43:00,60.7,55.5,29.84,South,184,4.0,15.0,83,0.00,,---,0.00,VWS V14.00,2013-04-18 10:43:00,
2013-04-18 06:48:00,60.7,55.5,29.84,South,187,5.0,12.0,83,0.00,,---,0.00,VWS V14.00,2013-04-18 10:48:00,
2013-04-18 06:53:00,60.7,55.5,29.84,SSW,192,11.0,12.0,83,0.00,,---,0.00,VWS V14.00,2013-04-18 10:53:00,
2013-04-18 06:58:00,60.7,55.5,29.85,SSE,158,4.0,12.0,83,0.00,,---,0.00,VWS V14.00,2013-04-18 10:58:00,
2013-04-18 07:03:00,60.6,55.8,29.84,SSE,168,10.0,10.0,84,0.00,,---,0.00,VWS V14.00,2013-04-18 11:03:00,
2013-04-18 07:08:00,60.7,55.8,29.84,South,180,6.0,18.0,84,0.00,,---,0.00,VWS V14.00,2013-04-18 11:08:00,
2013-04-18 07:13:00,61.1,55.9,29.84,South,186,9.0,18.0,83,0.00,,---,0.00,VWS V14.00,2013-04-18 11:13:00,
2013-04-18 07:18:00,61.3,56.1,29.84,South,182,6.0,17.0,83,0.00,,---,0.00,VWS V14.00,2013-04-18 11:18:00,
2013-04-18 07:23:00,61.6,56.4,29.84,SSW,202,6.0,17.0,83,0.00,,---,0.00,VWS V14.00,2013-04-18 11:23:00,
2013-04-18 07:28:00,61.8,56.6,29.84,SSW,192,3.0,17.0,83,0.00,,---,0.00,VWS V14.00,2013-04-18 11:28:00,
2013-04-18 07:33:00,62.1,56.5,29.84,South,189,7.0,9.0,82,0.00,,---,0.00,VWS V14.00,2013-04-18 11:33:00,
2013-04-18 07:38:00,62.4,56.8,29.85,South,186,11.0,18.0,82,0.00,,---,0.00,VWS V14.00,2013-04-18 11:38:00,
2013-04-18 07:43:00,62.6,56.7,29.85,South,180,7.0,18.0,81,0.00,,---,0.00,VWS V14.00,2013-04-18 11:43:00,
2013-04-18 07:48:00,62.7,56.8,29.84,ESE,119,7.0,18.0,81,0.00,,---,0.00,VWS V14.00,2013-04-18 11:48:00,
2013-04-18 07:53:00,62.9,56.6,29.85,SSW,192,8.0,18.0,80,0.00,,---,0.00,VWS V14.00,2013-04-18 11:53:00,
2013-04-18 07:58:00,63.0,56.7,29.85,SSW,201,11.0,20.0,80,0.00,,---,0.00,VWS V14.00,2013-04-18 11:58:00,
2013-04-18 08:03:00,63.0,56.7,29.85,South,188,16.0,16.0,80,0.00,,---,0.00,VWS V14.00,2013-04-18 12:03:00,
2013-04-18 08:08:00,63.2,56.9,29.85,South,187,8.0,16.0,80,0.00,,---,0.00,VWS V14.00,2013-04-18 12:08:00,
2013-04-18 08:13:00,63.5,56.9,29.85,SSW,202,8.0,18.0,79,0.00,,---,0.00,VWS V14.00,2013-04-18 12:13:00,
2013-04-18 08:18:00,63.6,57.0,29.85,SSW,202,7.0,12.0,79,0.00,,---,0.00,VWS V14.00,2013-04-18 12:18:00,
2013-04-18 08:23:00,63.7,57.1,29.85,SSW,194,5.0,22.0,79,0.00,,---,0.00,VWS V14.00,2013-04-18 12:23:00,
2013-04-18 08:28:00,63.8,57.2,29.84,SSW,209,4.0,22.0,79,0.00,,---,0.00,VWS V14.00,2013-04-18 12:28:00,
2013-04-18 08:33:00,64.1,57.5,29.84,SSW,200,7.0,17.0,79,0.00,,---,0.00,VWS V14.00,2013-04-18 12:33:00,
2013-04-18 08:38:00,64.5,57.5,29.84,SW,215,3.0,18.0,78,0.00,,---,0.00,VWS V14.00,2013-04-18 12:38:00,
2013-04-18 08:43:00,64.8,57.8,29.84,SSW,195,8.0,18.0,78,0.00,,---,0.00,VWS V14.00,2013-04-18 12:43:00,
2013-04-18 08:48:00,65.0,58.0,29.84,SSE,165,5.0,19.0,78,0.00,,---,0.00,VWS V14.00,2013-04-18 12:48:00,
2013-04-18 08:53:00,65.0,57.6,29.83,South,191,6.0,19.0,77,0.00,,---,0.00,VWS V14.00,2013-04-18 12:53:00,
2013-04-18 08:58:00,65.1,57.7,29.83,South,188,6.0,20.0,77,0.00,,---,0.00,VWS V14.00,2013-04-18 12:58:00,
2013-04-18 09:03:00,65.6,58.2,29.83,SSW,198,4.0,15.0,77,0.00,,---,0.00,VWS V14.00,2013-04-18 13:03:00,
2013-04-18 09:08:00,65.8,58.0,29.83,South,190,8.0,18.0,76,0.00,,---,0.00,VWS V14.00,2013-04-18 13:08:00,
2013-04-18 09:13:00,66.0,58.2,29.83,SSE,158,16.0,18.0,76,0.00,,---,0.00,VWS V14.00,2013-04-18 13:13:00,
2013-04-18 09:18:00,66.1,58.0,29.82,SSE,149,9.0,21.0,75,0.00,,---,0.00,VWS V14.00,2013-04-18 13:18:00,
2013-04-18 09:24:00,66.1,58.0,29.82,South,190,10.0,21.0,75,0.00,,---,0.00,VWS V14.00,2013-04-18 13:24:00,
2013-04-18 09:29:00,66.3,58.2,29.81,SSW,199,11.0,21.0,75,0.00,,---,0.00,VWS V14.00,2013-04-18 13:29:00,
2013-04-18 09:34:00,66.6,58.4,29.82,SSE,150,10.0,21.0,75,0.00,,---,0.00,VWS V14.00,2013-04-18 13:34:00,
2013-04-18 09:39:00,66.8,58.6,29.81,SW,217,6.0,24.0,75,0.00,,---,0.00,VWS V14.00,2013-04-18 13:39:00,
2013-04-18 09:44:00,67.3,58.7,29.81,South,174,4.0,24.0,74,0.00,,---,0.00,VWS V14.00,2013-04-18 13:44:00,
2013-04-18 09:49:00,67.6,58.7,29.81,SSW,194,11.0,22.0,73,0.00,,---,0.00,VWS V14.00,2013-04-18 13:49:00,
2013-04-18 09:54:00,67.6,58.7,29.81,SSW,200,13.0,23.0,73,0.00,,---,0.00,VWS V14.00,2013-04-18 13:54:00,
2013-04-18 09:59:00,67.8,58.8,29.81,SSW,194,19.0,23.0,73,0.00,,---,0.00,VWS V14.00,2013-04-18 13:59:00,
2013-04-18 10:04:00,68.3,59.3,29.80,SE,144,18.0,23.0,73,0.00,,---,0.00,VWS V14.00,2013-04-18 14:04:00,
2013-04-18 10:09:00,68.7,59.3,29.80,East,99,11.0,23.0,72,0.00,,---,0.00,VWS V14.00,2013-04-18 14:09:00,
2013-04-18 10:14:00,69.0,59.2,29.80,South,178,15.0,23.0,71,0.00,,---,0.00,VWS V14.00,2013-04-18 14:14:00,
2013-04-18 10:19:00,69.2,59.0,29.80,SSW,195,9.0,20.0,70,0.00,,---,0.00,VWS V14.00,2013-04-18 14:19:00,
2013-04-18 10:24:00,69.2,59.0,29.80,South,176,5.0,20.0,70,0.00,,---,0.00,VWS V14.00,2013-04-18 14:24:00,
2013-04-18 10:29:00,69.9,59.7,29.80,South,181,9.0,20.0,70,0.00,,---,0.00,VWS V14.00,2013-04-18 14:29:00,
2013-04-18 10:34:00,70.4,59.3,29.79,South,188,11.0,22.0,68,0.00,,---,0.00,VWS V14.00,2013-04-18 14:34:00,
2013-04-18 10:39:00,71.2,60.1,29.79,SSW,202,15.0,22.0,68,0.00,,---,0.00,VWS V14.00,2013-04-18 14:39:00,
2013-04-18 10:44:00,71.4,59.5,29.78,South,177,11.0,22.0,66,0.00,,---,0.00,VWS V14.00,2013-04-18 14:44:00,
2013-04-18 10:49:00,71.5,60.0,29.79,SSW,201,8.0,17.0,67,0.00,,---,0.00,VWS V14.00,2013-04-18 14:49:00,
2013-04-18 10:54:00,71.6,59.2,29.78,South,181,10.0,25.0,65,0.00,,---,0.00,VWS V14.00,2013-04-18 14:54:00,
2013-04-18 10:59:00,71.8,59.4,29.78,SSW,198,10.0,25.0,65,0.00,,---,0.00,VWS V14.00,2013-04-18 14:59:00,
2013-04-18 11:04:00,72.1,59.7,29.78,South,186,11.0,21.0,65,0.00,,---,0.00,VWS V14.00,2013-04-18 15:04:00,
2013-04-18 11:09:00,72.2,59.4,29.78,SSW,196,11.0,21.0,64,0.00,,---,0.00,VWS V14.00,2013-04-18 15:09:00,
2013-04-18 11:14:00,72.5,59.2,29.77,SSW,196,13.0,21.0,63,0.00,,---,0.00,VWS V14.00,2013-04-18 15:14:00,
2013-04-18 11:19:00,72.4,59.1,29.78,SSW,212,10.0,14.0,63,0.00,,---,0.00,VWS V14.00,2013-04-18 15:19:00,
2013-04-18 11:24:00,72.6,59.7,29.77,SSW,195,17.0,17.0,64,0.00,,---,0.00,VWS V14.00,2013-04-18 15:24:00,
2013-04-18 11:29:00,73.1,59.8,29.77,SSW,200,9.0,20.0,63,0.00,,---,0.00,VWS V14.00,2013-04-18 15:29:00,
2013-04-18 11:34:00,73.4,60.0,29.77,SSW,210,11.0,19.0,63,0.00,,---,0.00,VWS V14.00,2013-04-18 15:34:00,
2013-04-18 11:39:00,73.7,60.3,29.77,SSW,193,7.0,20.0,63,0.00,,---,0.00,VWS V14.00,2013-04-18 15:39:00,
2013-04-18 11:44:00,73.9,60.5,29.77,SW,232,4.0,20.0,63,0.00,,---,0.00,VWS V14.00,2013-04-18 15:44:00,
2013-04-18 11:49:00,74.3,60.5,29.76,SSW,209,6.0,14.0,62,0.00,,---,0.00,VWS V14.00,2013-04-18 15:49:00,
2013-04-18 11:54:00,74.7,60.8,29.77,SSW,198,12.0,20.0,62,0.00,,---,0.00,VWS V14.00,2013-04-18 15:54:00,
2013-04-18 11:59:00,74.4,61.4,29.76,SW,227,4.0,20.0,64,0.00,,---,0.00,VWS V14.00,2013-04-18 15:59:00,
2013-04-18 12:04:00,74.2,60.8,29.76,SW,232,9.0,20.0,63,0.00,,---,0.00,VWS V14.00,2013-04-18 16:04:00,
2013-04-18 12:09:00,74.4,61.4,29.76,WSW,255,14.0,20.0,64,0.00,,---,0.00,VWS V14.00,2013-04-18 16:09:00,
2013-04-18 12:14:00,74.6,61.6,29.76,South,187,10.0,20.0,64,0.00,,---,0.00,VWS V14.00,2013-04-18 16:14:00,
2013-04-18 12:19:00,74.8,61.4,29.75,South,185,7.0,17.0,63,0.00,,---,0.00,VWS V14.00,2013-04-18 16:19:00,
2013-04-18 12:24:00,75.0,61.6,29.75,SSW,199,12.0,19.0,63,0.00,,---,0.00,VWS V14.00,2013-04-18 16:24:00,
2013-04-18 12:29:00,75.3,61.8,29.75,SW,219,4.0,19.0,63,0.00,,---,0.00,VWS V14.00,2013-04-18 16:29:00,
2013-04-18 12:34:00,75.6,61.7,29.74,SSW,209,11.0,21.0,62,0.00,,---,0.00,VWS V14.00,2013-04-18 16:34:00,
2013-04-18 12:39:00,75.5,61.6,29.74,SSW,211,4.0,21.0,62,0.00,,---,0.00,VWS V14.00,2013-04-18 16:39:00,
2013-04-18 12:44:00,75.7,61.8,29.74,SSE,159,8.0,21.0,62,0.00,,---,0.00,VWS V14.00,2013-04-18 16:44:00,
2013-04-18 12:49:00,75.8,61.4,29.73,South,178,9.0,18.0,61,0.00,,---,0.00,VWS V14.00,2013-04-18 16:49:00,
2013-04-18 12:54:00,75.6,61.7,29.73,SSW,200,15.0,18.0,62,0.00,,---,0.00,VWS V14.00,2013-04-18 16:54:00,
2013-04-18 12:59:00,75.8,61.4,29.72,SSW,210,12.0,22.0,61,0.00,,---,0.00,VWS V14.00,2013-04-18 16:59:00,
2013-04-18 13:04:00,76.4,62.4,29.72,South,178,4.0,16.0,62,0.00,,---,0.00,VWS V14.00,2013-04-18 17:04:00,
2013-04-18 13:09:00,77.1,62.2,29.71,SSW,195,6.0,18.0,60,0.00,,---,0.00,VWS V14.00,2013-04-18 17:09:00,
2013-04-18 13:14:00,77.3,62.3,29.71,SSW,200,14.0,22.0,60,0.00,,---,0.00,VWS V14.00,2013-04-18 17:14:00,
2013-04-18 13:19:00,77.1,62.2,29.71,South,174,17.0,20.0,60,0.00,,---,0.00,VWS V14.00,2013-04-18 17:19:00,
2013-04-18 13:24:00,77.4,62.0,29.71,WSW,241,9.0,20.0,59,0.00,,---,0.00,VWS V14.00,2013-04-18 17:24:00,
2013-04-18 13:29:00,77.7,63.2,29.71,SW,214,10.0,20.0,61,0.00,,---,0.00,VWS V14.00,2013-04-18 17:29:00,
2013-04-18 13:34:00,78.2,62.2,29.70,SSW,206,13.0,18.0,58,0.00,,---,0.00,VWS V14.00,2013-04-18 17:34:00,
2013-04-18 13:39:00,78.5,62.5,29.70,SSW,207,11.0,18.0,58,0.00,,---,0.00,VWS V14.00,2013-04-18 17:39:00,
2013-04-18 13:44:00,79.0,63.5,29.70,SSW,196,6.0,18.0,59,0.00,,---,0.00,VWS V14.00,2013-04-18 17:44:00,
2013-04-18 13:49:00,79.8,63.2,29.70,SSE,147,12.0,14.0,57,0.00,,---,0.00,VWS V14.00,2013-04-18 17:49:00,
2013-04-18 13:54:00,79.2,62.2,29.69,SW,236,13.0,19.0,56,0.00,,---,0.00,VWS V14.00,2013-04-18 17:54:00,
2013-04-18 13:59:00,78.6,62.1,29.69,SW,216,12.0,19.0,57,0.00,,---,0.00,VWS V14.00,2013-04-18 17:59:00,
2013-04-18 14:04:00,78.5,62.5,29.69,SSW,196,17.0,21.0,58,0.00,,---,0.00,VWS V14.00,2013-04-18 18:04:00,
2013-04-18 14:09:00,79.1,62.6,29.69,South,173,10.0,22.0,57,0.00,,---,0.00,VWS V14.00,2013-04-18 18:09:00,
2013-04-18 14:14:00,79.1,62.6,29.69,SW,232,11.0,22.0,57,0.00,,---,0.00,VWS V14.00,2013-04-18 18:14:00,
2013-04-18 14:19:00,78.7,61.7,29.69,SSW,201,11.0,21.0,56,0.00,,---,0.00,VWS V14.00,2013-04-18 18:19:00,
2013-04-18 14:24:00,78.5,61.5,29.69,WSW,254,10.0,22.0,56,0.00,,---,0.00,VWS V14.00,2013-04-18 18:24:00,
2013-04-18 14:29:00,78.5,61.5,29.69,SSW,209,16.0,22.0,56,0.00,,---,0.00,VWS V14.00,2013-04-18 18:29:00,
2013-04-18 14:34:00,78.8,62.3,29.69,South,189,3.0,18.0,57,0.00,,---,0.00,VWS V14.00,2013-04-18 18:34:00,
2013-04-18 14:39:00,78.9,61.9,29.68,South,180,7.0,20.0,56,0.00,,---,0.00,VWS V14.00,2013-04-18 18:39:00,
2013-04-18 14:44:00,79.2,61.7,29.68,SSW,198,14.0,20.0,55,0.00,,---,0.00,VWS V14.00,2013-04-18 18:44:00,
2013-04-18 14:49:00,79.5,61.9,29.68,SSE,164,11.0,16.0,55,0.00,,---,0.00,VWS V14.00,2013-04-18 18:49:00,
2013-04-18 14:54:00,79.0,62.0,29.68,SW,214,8.0,19.0,56,0.00,,---,0.00,VWS V14.00,2013-04-18 18:54:00,
2013-04-18 14:59:00,78.9,61.9,29.67,SSW,205,7.0,19.0,56,0.00,,---,0.00,VWS V14.00,2013-04-18 18:59:00,
2013-04-18 15:04:00,79.2,61.7,29.67,SSW,212,8.0,18.0,55,0.00,,---,0.00,VWS V14.00,2013-04-18 19:04:00,
2013-04-18 15:09:00,79.1,61.6,29.67,SSW,213,6.0,19.0,55,0.00,,---,0.00,VWS V14.00,2013-04-18 19:09:00,
2013-04-18 15:14:00,79.1,61.6,29.67,SSW,192,8.0,13.0,55,0.00,,---,0.00,VWS V14.00,2013-04-18 19:14:00,
2013-04-18 15:19:00,79.1,61.6,29.67,SSW,201,8.0,17.0,55,0.00,,---,0.00,VWS V14.00,2013-04-18 19:19:00,
2013-04-18 15:24:00,79.2,62.2,29.66,South,183,1.0,17.0,56,0.00,,---,0.00,VWS V14.00,2013-04-18 19:24:00,
2013-04-18 15:29:00,79.4,61.8,29.66,SSW,213,7.0,8.0,55,0.00,,---,0.00,VWS V14.00,2013-04-18 19:29:00,
2013-04-18 15:34:00,79.5,61.4,29.66,SSW,208,9.0,17.0,54,0.00,,---,0.00,VWS V14.00,2013-04-18 19:34:00,
2013-04-18 15:39:00,79.5,61.9,29.65,SSW,192,14.0,18.0,55,0.00,,---,0.00,VWS V14.00,2013-04-18 19:39:00,
2013-04-18 15:44:00,79.7,62.1,29.65,South,190,8.0,8.0,55,0.00,,---,0.00,VWS V14.00,2013-04-18 19:44:00,
2013-04-18 15:49:00,79.6,62.0,29.65,South,186,11.0,17.0,55,0.00,,---,0.00,VWS V14.00,2013-04-18 19:49:00,
2013-04-18 15:54:00,79.5,61.9,29.64,South,191,12.0,17.0,55,0.00,,---,0.00,VWS V14.00,2013-04-18 19:54:00,
2013-04-18 15:59:00,79.6,61.5,29.63,SSW,204,10.0,15.0,54,0.00,,---,0.00,VWS V14.00,2013-04-18 19:59:00,
2013-04-18 16:04:00,80.2,62.1,29.63,SW,225,7.0,17.0,54,0.00,,---,0.00,VWS V14.00,2013-04-18 20:04:00,
2013-04-18 16:09:00,81.2,61.9,29.63,SSW,192,10.0,13.0,52,0.00,,---,0.00,VWS V14.00,2013-04-18 20:09:00,
2013-04-18 16:14:00,81.4,62.6,29.64,SSW,197,10.0,11.0,53,0.00,,---,0.00,VWS V14.00,2013-04-18 20:14:00,
2013-04-18 16:19:00,81.1,62.4,29.64,South,190,6.0,10.0,53,0.00,,---,0.00,VWS V14.00,2013-04-18 20:19:00,
2013-04-18 16:24:00,80.9,61.6,29.64,SSW,213,9.0,14.0,52,0.00,,---,0.00,VWS V14.00,2013-04-18 20:24:00,
2013-04-18 16:29:00,80.9,61.6,29.64,SW,217,9.0,14.0,52,0.00,,---,0.00,VWS V14.00,2013-04-18 20:29:00,
2013-04-18 16:34:00,81.1,61.8,29.63,SSW,202,8.0,14.0,52,0.00,,---,0.00,VWS V14.00,2013-04-18 20:34:00,
2013-04-18 16:39:00,80.8,62.1,29.63,South,180,13.0,19.0,53,0.00,,---,0.00,VWS V14.00,2013-04-18 20:39:00,
2013-04-18 16:44:00,80.1,62.0,29.62,South,184,12.0,12.0,54,0.00,,---,0.00,VWS V14.00,2013-04-18 20:44:00,
2013-04-18 16:49:00,80.1,62.0,29.62,South,180,7.0,18.0,54,0.00,,---,0.00,VWS V14.00,2013-04-18 20:49:00,
2013-04-18 16:54:00,80.4,62.2,29.62,SSW,200,12.0,18.0,54,0.00,,---,0.00,VWS V14.00,2013-04-18 20:54:00,
2013-04-18 16:59:00,80.7,61.5,29.61,South,175,12.0,15.0,52,0.00,,---,0.00,VWS V14.00,2013-04-18 20:59:00,
2013-04-18 17:04:00,81.1,61.8,29.61,South,172,11.0,18.0,52,0.00,,---,0.00,VWS V14.00,2013-04-18 21:04:00,
2013-04-18 17:09:00,81.5,62.2,29.61,SW,223,4.0,18.0,52,0.00,,---,0.00,VWS V14.00,2013-04-18 21:09:00,
2013-04-18 17:14:00,81.7,60.7,29.61,SSW,208,4.0,11.0,49,0.00,,---,0.00,VWS V14.00,2013-04-18 21:14:00,
2013-04-18 17:20:00,81.4,60.4,29.62,SW,217,10.0,18.0,49,0.00,,---,0.00,VWS V14.00,2013-04-18 21:20:00,
2013-04-18 17:25:00,81.1,60.2,29.62,SSW,198,8.0,25.0,49,0.00,,---,0.00,VWS V14.00,2013-04-18 21:25:00,
2013-04-18 17:30:00,81.2,60.2,29.61,SSW,198,7.0,14.0,49,0.00,,---,0.00,VWS V14.00,2013-04-18 21:30:00,
2013-04-18 17:35:00,81.0,60.1,29.61,South,190,10.0,19.0,49,0.00,,---,0.00,VWS V14.00,2013-04-18 21:35:00,
2013-04-18 17:40:00,80.7,59.8,29.61,SW,224,10.0,23.0,49,0.00,,---,0.00,VWS V14.00,2013-04-18 21:40:00,
2013-04-18 17:45:00,80.7,59.8,29.61,SW,220,9.0,9.0,49,0.00,,---,0.00,VWS V14.00,2013-04-18 21:45:00,
2013-04-18 17:50:00,80.6,59.1,29.61,South,186,9.0,15.0,48,0.00,,---,0.00,VWS V14.00,2013-04-18 21:50:00,
2013-04-18 17:55:00,80.5,59.6,29.61,SSW,203,3.0,19.0,49,0.00,,---,0.00,VWS V14.00,2013-04-18 21:55:00,
2013-04-18 18:00:00,80.4,59.5,29.60,SW,235,9.0,18.0,49,0.00,,---,0.00,VWS V14.00,2013-04-18 22:00:00,
2013-04-18 18:05:00,80.6,59.7,29.60,SSW,205,9.0,18.0,49,0.00,,---,0.00,VWS V14.00,2013-04-18 22:05:00,
2013-04-18 18:10:00,80.6,59.1,29.60,SSW,211,3.0,19.0,48,0.00,,---,0.00,VWS V14.00,2013-04-18 22:10:00,
2013-04-18 18:15:00,80.6,58.5,29.59,SSW,198,10.0,17.0,47,0.00,,---,0.00,VWS V14.00,2013-04-18 22:15:00,
2013-04-18 18:20:00,80.6,58.5,29.59,SSW,192,10.0,17.0,47,0.00,,---,0.00,VWS V14.00,2013-04-18 22:20:00,
2013-04-18 18:25:00,80.7,59.2,29.59,SSW,194,6.0,17.0,48,0.00,,---,0.00,VWS V14.00,2013-04-18 22:25:00,
2013-04-18 18:30:00,80.8,58.7,29.59,SSW,198,7.0,14.0,47,0.00,,---,0.00,VWS V14.00,2013-04-18 22:30:00,
2013-04-18 18:35:00,81.0,58.9,29.59,South,177,17.0,17.0,47,0.00,,---,0.00,VWS V14.00,2013-04-18 22:35:00,
2013-04-18 18:40:00,81.2,59.1,29.59,South,186,7.0,20.0,47,0.00,,---,0.00,VWS V14.00,2013-04-18 22:40:00,
2013-04-18 18:45:00,81.3,58.6,29.59,SSW,202,7.0,13.0,46,0.00,,---,0.00,VWS V14.00,2013-04-18 22:45:00,
2013-04-18 18:50:00,81.3,58.6,29.59,SSW,207,4.0,14.0,46,0.00,,---,0.00,VWS V14.00,2013-04-18 22:50:00,
2013-04-18 18:55:00,81.1,58.4,29.58,SSW,201,6.0,14.0,46,0.00,,---,0.00,VWS V14.00,2013-04-18 22:55:00,
2013-04-18 19:00:00,80.7,58.0,29.58,SSE,157,10.0,13.0,46,0.00,,---,0.00,VWS V14.00,2013-04-18 23:00:00,
2013-04-18 19:05:00,80.5,57.8,29.59,SW,227,14.0,18.0,46,0.00,,---,0.00,VWS V14.00,2013-04-18 23:05:00,
2013-04-18 19:10:00,80.5,57.8,29.59,South,184,12.0,18.0,46,0.00,,---,0.00,VWS V14.00,2013-04-18 23:10:00,
2013-04-18 19:15:00,80.4,57.8,29.59,SSW,194,7.0,12.0,46,0.00,,---,0.00,VWS V14.00,2013-04-18 23:15:00,
2013-04-18 19:20:00,80.2,57.6,29.58,WSW,238,13.0,13.0,46,0.00,,---,0.00,VWS V14.00,2013-04-18 23:20:00,
2013-04-18 19:25:00,80.0,58.0,29.58,SSW,205,4.0,16.0,47,0.00,,---,0.00,VWS V14.00,2013-04-18 23:25:00,
2013-04-18 19:30:00,79.9,57.9,29.58,SW,215,3.0,5.0,47,0.00,,---,0.00,VWS V14.00,2013-04-18 23:30:00,
2013-04-18 19:35:00,79.8,57.8,29.58,WSW,242,9.0,12.0,47,0.00,,---,0.00,VWS V14.00,2013-04-18 23:35:00,
2013-04-18 19:40:00,79.4,57.4,29.58,South,187,8.0,13.0,47,0.00,,---,0.00,VWS V14.00,2013-04-18 23:40:00,
2013-04-18 19:45:00,79.3,57.3,29.58,SSW,201,6.0,8.0,47,0.00,,---,0.00,VWS V14.00,2013-04-18 23:45:00,
2013-04-18 19:50:00,79.3,57.3,29.58,SSW,197,2.0,12.0,47,0.00,,---,0.00,VWS V14.00,2013-04-18 23:50:00,
2013-04-18 19:55:00,78.9,57.6,29.58,SSW,192,2.0,12.0,48,0.00,,---,0.00,VWS V14.00,2013-04-18 23:55:00,
2013-04-18 20:00:00,78.9,57.6,29.58,South,187,7.0,8.0,48,0.00,,---,0.00,VWS V14.00,2013-04-19 00:00:00,
2013-04-18 20:05:00,78.7,57.4,29.57,SW,219,3.0,10.0,48,0.00,,---,0.00,VWS V14.00,2013-04-19 00:05:00,
2013-04-18 20:10:00,78.6,57.3,29.57,South,188,5.0,11.0,48,0.00,,---,0.00,VWS V14.00,2013-04-19 00:10:00,
2013-04-18 20:15:00,78.5,57.8,29.57,South,188,4.0,9.0,49,0.00,,---,0.00,VWS V14.00,2013-04-19 00:15:00,
2013-04-18 20:20:00,78.3,57.6,29.57,SSW,211,7.0,10.0,49,0.00,,---,0.00,VWS V14.00,2013-04-19 00:20:00,
2013-04-18 20:25:00,78.2,57.5,29.57,South,184,5.0,10.0,49,0.00,,---,0.00,VWS V14.00,2013-04-19 00:25:00,
2013-04-18 20:30:00,78.3,57.0,29.57,SSW,192,6.0,10.0,48,0.00,,---,0.00,VWS V14.00,2013-04-19 00:30:00,
2013-04-18 20:35:00,78.0,57.3,29.57,SSW,203,2.0,10.0,49,0.00,,---,0.00,VWS V14.00,2013-04-19 00:35:00,
2013-04-18 20:40:00,77.7,57.0,29.57,SSW,192,1.0,10.0,49,0.00,,---,0.00,VWS V14.00,2013-04-19 00:40:00,
2013-04-18 20:45:00,77.6,57.5,29.57,South,187,5.0,7.0,50,0.00,,---,0.00,VWS V14.00,2013-04-19 00:45:00,
2013-04-18 20:50:00,77.4,57.3,29.57,SSW,196,5.0,7.0,50,0.00,,---,0.00,VWS V14.00,2013-04-19 00:50:00,
2013-04-18 20:56:00,77.0,57.0,29.57,South,173,6.0,8.0,50,0.00,,---,0.00,VWS V14.00,2013-04-19 00:56:00,
2013-04-18 21:00:00,76.7,57.2,29.57,SSW,193,0.0,5.0,51,0.00,,---,0.00,VWS V14.00,2013-04-19 01:00:00,
2013-04-18 21:05:00,76.7,57.2,29.57,SSW,194,3.0,8.0,51,0.00,,---,0.00,VWS V14.00,2013-04-19 01:05:00,
2013-04-18 21:10:00,76.4,57.5,29.58,SSW,200,6.0,8.0,52,0.00,,---,0.00,VWS V14.00,2013-04-19 01:10:00,
2013-04-18 21:15:00,76.4,57.5,29.58,SSW,202,3.0,5.0,52,0.00,,---,0.00,VWS V14.00,2013-04-19 01:15:00,
2013-04-18 21:20:00,76.2,57.8,29.57,South,173,7.0,9.0,53,0.00,,---,0.00,VWS V14.00,2013-04-19 01:20:00,
2013-04-18 21:26:00,76.3,57.9,29.57,SSW,203,6.0,10.0,53,0.00,,---,0.00,VWS V14.00,2013-04-19 01:26:00,
2013-04-18 21:30:00,76.4,58.0,29.57,South,185,5.0,13.0,53,0.00,,---,0.00,VWS V14.00,2013-04-19 01:30:00,
2013-04-18 21:36:00,76.4,58.0,29.57,SSW,194,8.0,13.0,53,0.00,,---,0.00,VWS V14.00,2013-04-19 01:36:00,
2013-04-18 21:41:00,76.4,58.0,29.57,SSW,192,4.0,13.0,53,0.00,,---,0.00,VWS V14.00,2013-04-19 01:41:00,
2013-04-18 21:46:00,76.4,58.0,29.57,SSW,210,10.0,10.0,53,0.00,,---,0.00,VWS V14.00,2013-04-19 01:46:00,
2013-04-18 21:51:00,76.4,58.0,29.58,SSW,192,6.0,12.0,53,0.00,,---,0.00,VWS V14.00,2013-04-19 01:51:00,
2013-04-18 21:56:00,76.3,58.5,29.58,SSW,192,2.0,16.0,54,0.00,,---,0.00,VWS V14.00,2013-04-19 01:56:00,
2013-04-18 22:01:00,76.2,58.4,29.58,SSW,201,4.0,11.0,54,0.00,,---,0.00,VWS V14.00,2013-04-19 02:01:00,
2013-04-18 22:06:00,76.2,58.4,29.57,SSW,205,8.0,11.0,54,0.00,,---,0.00,VWS V14.00,2013-04-19 02:06:00,
2013-04-18 22:11:00,76.1,58.3,29.57,South,183,7.0,20.0,54,0.00,,---,0.00,VWS V14.00,2013-04-19 02:11:00,
2013-04-18 22:16:00,76.0,58.7,29.58,SW,219,2.0,12.0,55,0.00,,---,0.00,VWS V14.00,2013-04-19 02:16:00,
2013-04-18 22:21:00,75.9,58.6,29.58,SSW,196,6.0,14.0,55,0.00,,---,0.00,VWS V14.00,2013-04-19 02:21:00,
2013-04-18 22:26:00,75.6,58.3,29.57,SSW,196,10.0,14.0,55,0.00,,---,0.00,VWS V14.00,2013-04-19 02:26:00,
2013-04-18 22:31:00,75.2,58.4,29.57,SSW,209,8.0,12.0,56,0.00,,---,0.00,VWS V14.00,2013-04-19 02:31:00,
2013-04-18 22:36:00,75.1,58.3,29.58,SSW,199,6.0,17.0,56,0.00,,---,0.00,VWS V14.00,2013-04-19 02:36:00,
2013-04-18 22:41:00,75.1,58.3,29.57,SSW,202,11.0,17.0,56,0.00,,---,0.00,VWS V14.00,2013-04-19 02:41:00,
2013-04-18 22:46:00,75.0,58.3,29.58,SSW,195,6.0,11.0,56,0.00,,---,0.00,VWS V14.00,2013-04-19 02:46:00,
2013-04-18 22:51:00,74.8,58.1,29.57,South,187,8.0,14.0,56,0.00,,---,0.00,VWS V14.00,2013-04-19 02:51:00,
2013-04-18 22:56:00,74.7,58.0,29.57,South,190,7.0,18.0,56,0.00,,---,0.00,VWS V14.00,2013-04-19 02:56:00,
2013-04-18 23:01:00,74.7,58.0,29.58,SW,227,6.0,15.0,56,0.00,,---,0.00,VWS V14.00,2013-04-19 03:01:00,
2013-04-18 23:06:00,74.6,57.4,29.57,SSW,200,11.0,15.0,55,0.00,,---,0.00,VWS V14.00,2013-04-19 03:06:00,
2013-04-18 23:11:00,74.4,57.2,29.57,South,186,7.0,15.0,55,0.00,,---,0.00,VWS V14.00,2013-04-19 03:11:00,
2013-04-18 23:16:00,74.2,57.5,29.58,SSW,198,9.0,10.0,56,0.00,,---,0.00,VWS V14.00,2013-04-19 03:16:00,
2013-04-18 23:21:00,74.0,56.8,29.58,SW,231,8.0,12.0,55,0.00,,---,0.00,VWS V14.00,2013-04-19 03:21:00,
2013-04-18 23:26:00,73.8,57.1,29.57,South,188,4.0,12.0,56,0.00,,---,0.00,VWS V14.00,2013-04-19 03:26:00,
2013-04-18 23:31:00,73.6,57.0,29.57,South,184,10.0,11.0,56,0.00,,---,0.00,VWS V14.00,2013-04-19 03:31:00,
2013-04-18 23:36:00,73.5,56.9,29.57,SSW,196,5.0,11.0,56,0.00,,---,0.00,VWS V14.00,2013-04-19 03:36:00,
2013-04-18 23:41:00,73.4,56.8,29.57,SW,225,2.0,11.0,56,0.00,,---,0.00,VWS V14.00,2013-04-19 03:41:00,
2013-04-18 23:46:00,73.4,56.8,29.58,SSW,202,6.0,8.0,56,0.00,,---,0.00,VWS V14.00,2013-04-19 03:46:00,
2013-04-18 23:51:00,73.4,57.3,29.58,West,278,2.0,8.0,57,0.00,,---,0.00,VWS V14.00,2013-04-19 03:51:00,
2013-04-18 23:56:00,71.7,57.5,29.58,NW,314,2.0,8.0,61,0.00,,---,0.00,VWS V14.00,2013-04-19 03:56:00,